Terminal Aerodrome Forecast
Issued by NWS Sterling, VA

Current Version | Previous Version | Text Only | Print | Product List | Glossary Off
Versions: 1 2 3 4 5 6 7 8 9 10 11 12 13 14 15 16 17 18 19 20 21 22 23 24 25

000
FTUS41 KLWX 270842 AAA
TAFIAD
TAF AMD
KIAD 270842Z 2709/2812 12005KT 1/2SM -DZ FG VV002
     FM271100 19007KT 1 1/2SM -DZ BR BKN003
     FM271200 19007KT P6SM BKN003
     FM271300 20008KT P6SM BKN008
     FM271600 21009KT P6SM BKN030
     FM271900 22008KT P6SM BKN050
     FM280000 17004KT P6SM BKN050=

USA.gov is the U.S. government's official web portal to all federal, state and local government web resources and services.